Time;durP1;ratioP1;P1;durP2;ratioP2;P2;SDS_P1;SDS_P2;PMS_P1;PMS_P2;Temp;Humidity;BMP_temperature;BMP_pressure;BME280_temperature;BME280_humidity;BME280_pressure;Samples;Min_cycle;Max_cycle;Signal;HPM_P1;HPM_P2
2021/05/17 00:00:34;;;;;;;0.10;0.10;;;15.50;99.90;;;;;;6243063;22;21053;-76
2021/05/17 00:03:01;;;;;;;0.00;0.00;;;15.60;99.90;;;;;;6242883;22;20023;-76
2021/05/17 00:05:29;;;;;;;0.00;0.00;;;15.50;99.90;;;;;;6243079;23;20000;-76
2021/05/17 00:07:55;;;;;;;0.10;0.10;;;15.50;99.90;;;;;;6243119;23;20016;-77
2021/05/17 00:10:21;;;;;;;0.00;0.00;;;15.50;99.90;;;;;;6242816;22;20057;-77
2021/05/17 00:12:47;;;;;;;0.10;0.10;;;15.40;99.90;;;;;;6242909;23;20007;-77
2021/05/17 00:15:15;;;;;;;0.00;0.00;;;15.40;99.90;;;;;;6242835;22;20006;-76
2021/05/17 00:17:42;;;;;;;0.03;0.03;;;15.30;99.90;;;;;;6242935;22;20004;-76
2021/05/17 00:20:11;;;;;;;0.05;0.05;;;15.30;99.90;;;;;;6242554;23;20439;-77
2021/05/17 00:22:36;;;;;;;0.00;0.00;;;15.30;99.90;;;;;;6243475;22;20030;-76
2021/05/17 00:25:03;;;;;;;0.00;0.00;;;15.30;99.90;;;;;;6242239;22;20016;-76
2021/05/17 00:27:29;;;;;;;0.10;0.10;;;15.30;99.90;;;;;;6242804;22;20070;-76
2021/05/17 00:29:56;;;;;;;0.03;0.03;;;15.30;99.90;;;;;;6242488;22;20082;-76
2021/05/17 00:32:21;;;;;;;0.10;0.10;;;15.30;99.90;;;;;;6242987;22;20002;-76
2021/05/17 00:34:47;;;;;;;0.00;0.00;;;15.30;99.90;;;;;;6242708;22;20028;-76
2021/05/17 00:37:14;;;;;;;0.10;0.10;;;15.40;99.90;;;;;;6242906;22;20007;-76
2021/05/17 00:39:41;;;;;;;0.00;0.00;;;15.40;99.90;;;;;;6242534;22;20304;-76
2021/05/17 00:42:07;;;;;;;0.00;0.00;;;15.50;99.90;;;;;;6242966;23;20107;-76
2021/05/17 00:44:33;;;;;;;0.10;0.10;;;15.50;99.90;;;;;;6242337;23;20183;-76
2021/05/17 00:46:59;;;;;;;0.10;0.10;;;15.60;99.90;;;;;;6242819;23;20387;-76
2021/05/17 00:49:26;;;;;;;0.00;0.00;;;15.60;99.90;;;;;;6242378;23;20420;-76
2021/05/17 00:51:52;;;;;;;0.05;0.05;;;15.60;99.90;;;;;;6242926;22;20012;-76
2021/05/17 00:54:17;;;;;;;0.00;0.00;;;15.70;99.90;;;;;;6242091;23;20362;-76
2021/05/17 00:56:43;;;;;;;0.10;0.10;;;15.70;99.90;;;;;;6242472;23;20083;-76
2021/05/17 00:59:09;;;;;;;0.00;0.00;;;15.80;99.90;;;;;;6242278;22;20038;-76
2021/05/17 01:01:35;;;;;;;0.10;0.10;;;15.80;99.90;;;;;;6242639;22;20000;-76
2021/05/17 01:04:01;;;;;;;0.03;0.03;;;15.80;99.90;;;;;;6242072;22;20028;-76
2021/05/17 01:06:29;;;;;;;0.00;0.00;;;15.70;99.90;;;;;;6242458;22;20004;-77
2021/05/17 01:09:02;;;;;;;0.00;0.00;;;15.70;99.90;;;;;;6242179;22;20339;-76
2021/05/17 01:11:28;;;;;;;0.10;0.10;;;15.70;99.90;;;;;;6242558;22;19999;-76
2021/05/17 01:14:03;;;;;;;0.00;0.00;;;15.70;99.90;;;;;;6241791;22;20087;-75
2021/05/17 01:16:29;;;;;;;0.10;0.10;;;15.70;99.90;;;;;;6242230;23;20006;-76
2021/05/17 01:18:55;;;;;;;0.10;0.10;;;15.70;99.90;;;;;;6242019;23;20004;-76
2021/05/17 01:21:23;;;;;;;0.00;0.00;;;15.70;99.90;;;;;;6242614;22;20000;-76
2021/05/17 01:23:57;;;;;;;0.00;0.00;;;15.70;99.90;;;;;;6241904;23;20325;-76
2021/05/17 01:26:25;;;;;;;0.10;0.10;;;15.70;99.90;;;;;;6242242;22;20055;-76
2021/05/17 01:28:54;;;;;;;0.00;0.00;;;15.70;99.90;;;;;;6242000;23;20000;-76
2021/05/17 01:31:20;;;;;;;0.10;0.10;;;15.70;99.90;;;;;;6242394;22;20031;-76
2021/05/17 01:33:47;;;;;;;0.00;0.00;;;15.70;99.90;;;;;;6241739;23;19996;-76
2021/05/17 01:36:14;;;;;;;0.10;0.10;;;15.70;99.90;;;;;;6242494;22;20007;-76
2021/05/17 01:38:44;;;;;;;;;;;15.60;99.90;;;;;;6242270;23;20008;-76
2021/05/17 01:41:15;;;;;;;0.00;0.00;;;15.70;99.90;;;;;;6242382;23;19899;-76
2021/05/17 01:43:44;;;;;;;0.00;0.00;;;15.60;99.90;;;;;;6241971;23;19996;-76
2021/05/17 01:46:14;;;;;;;0.10;0.10;;;15.70;99.90;;;;;;6242284;22;20008;-76
2021/05/17 01:48:41;;;;;;;0.10;0.10;;;15.60;99.90;;;;;;6241799;23;20075;-75
2021/05/17 01:51:09;;;;;;;0.10;0.10;;;15.60;99.90;;;;;;6242187;22;20050;-77
2021/05/17 01:53:37;;;;;;;0.10;0.10;;;15.50;99.90;;;;;;6242142;23;20116;-77
2021/05/17 01:56:06;;;;;;;0.10;0.10;;;15.50;99.90;;;;;;6242123;23;20010;-76
2021/05/17 01:58:33;;;;;;;0.10;0.10;;;15.50;99.90;;;;;;6241643;22;20004;-76
2021/05/17 02:00:59;;;;;;;0.10;0.10;;;15.50;99.90;;;;;;6242426;23;20026;-77
2021/05/17 02:03:25;;;;;;;0.10;0.10;;;15.40;99.90;;;;;;6241864;23;20033;-77
2021/05/17 02:05:53;;;;;;;0.08;0.08;;;15.30;99.90;;;;;;6242018;23;20004;-77
2021/05/17 02:08:19;;;;;;;0.10;0.10;;;15.20;99.90;;;;;;6242799;22;20412;-77
2021/05/17 02:10:46;;;;;;;0.00;0.00;;;15.20;99.90;;;;;;6244336;23;20003;-77
2021/05/17 02:13:20;;;;;;;0.00;0.00;;;15.20;99.90;;;;;;6244007;23;20050;-77
2021/05/17 02:15:47;;;;;;;0.10;0.10;;;15.20;99.90;;;;;;6244203;22;20023;-77
2021/05/17 02:18:14;;;;;;;0.10;0.10;;;15.20;99.90;;;;;;6243702;23;20008;-76
2021/05/17 02:20:42;;;;;;;0.00;0.00;;;15.30;99.90;;;;;;6244796;23;20004;-77
2021/05/17 02:23:17;;;;;;;0.10;0.10;;;15.40;99.90;;;;;;6243720;23;20004;-77
2021/05/17 02:25:46;;;;;;;0.10;0.10;;;15.40;99.90;;;;;;6244244;23;20004;-77
2021/05/17 02:28:12;;;;;;;0.10;0.10;;;15.40;99.90;;;;;;6244005;23;20008;-77
2021/05/17 02:30:38;;;;;;;0.00;0.00;;;15.30;99.90;;;;;;6243949;22;20000;-77
2021/05/17 02:33:05;;;;;;;0.00;0.00;;;15.40;99.90;;;;;;6243843;23;20032;-76
2021/05/17 02:35:32;;;;;;;0.10;0.10;;;15.30;99.90;;;;;;6244164;23;20000;-76
2021/05/17 02:37:58;;;;;;;0.10;0.10;;;15.00;99.90;;;;;;6244233;23;20074;-77
2021/05/17 02:40:25;;;;;;;0.10;0.10;;;14.70;99.90;;;;;;6244181;23;20008;-77
2021/05/17 02:42:54;;;;;;;0.10;0.10;;;14.60;99.90;;;;;;6244509;22;19996;-77
2021/05/17 02:45:22;;;;;;;0.00;0.00;;;14.50;99.90;;;;;;6243970;23;20545;-77
2021/05/17 02:47:48;;;;;;;0.00;0.00;;;14.50;99.90;;;;;;6217385;23;20016;-78
2021/05/17 02:50:16;;;;;;;0.03;0.03;;;14.50;99.90;;;;;;6243974;23;20495;-78
2021/05/17 02:52:44;;;;;;;0.10;0.10;;;14.50;99.90;;;;;;6244597;23;19993;-78
2021/05/17 02:55:13;;;;;;;0.00;0.00;;;14.50;99.90;;;;;;6243699;23;20320;-78
2021/05/17 02:58:05;;;;;;;0.10;0.10;;;14.60;99.90;;;;;;6244339;23;20058;-79
2021/05/17 03:00:36;;;;;;;0.00;0.00;;;14.60;99.90;;;;;;6243898;22;20000;-80
2021/05/17 03:03:09;;;;;;;0.10;0.10;;;14.60;99.90;;;;;;6243730;23;20028;-78
2021/05/17 03:05:41;;;;;;;0.10;0.10;;;14.60;99.90;;;;;;6243995;22;20339;-78
2021/05/17 03:08:12;;;;;;;0.10;0.10;;;14.60;99.90;;;;;;6243895;23;20393;-78
2021/05/17 03:10:43;;;;;;;0.08;0.08;;;14.50;99.90;;;;;;6243806;22;20000;-79
2021/05/17 03:13:15;;;;;;;0.00;0.00;;;14.60;99.90;;;;;;6243721;23;20007;-79
2021/05/17 03:15:42;;;;;;;0.00;0.00;;;14.50;99.90;;;;;;6243858;23;20000;-79
2021/05/17 03:18:09;;;;;;;0.10;0.10;;;14.60;99.90;;;;;;6243670;23;20004;-80
2021/05/17 03:20:35;;;;;;;;;;;14.50;99.90;;;;;;6244218;22;20334;-79
2021/05/17 03:23:06;;;;;;;0.00;0.00;;;14.60;99.90;;;;;;6243351;22;20410;-79
2021/05/17 03:25:33;;;;;;;0.00;0.00;;;14.60;99.90;;;;;;6243739;23;20028;-79
2021/05/17 03:27:59;;;;;;;0.00;0.00;;;14.60;99.90;;;;;;6216864;23;20328;-80
2021/05/17 03:30:26;;;;;;;0.00;0.00;;;14.60;99.90;;;;;;6243706;23;20000;-79
2021/05/17 03:32:52;;;;;;;0.00;0.00;;;14.50;99.90;;;;;;6244313;22;20004;-79
2021/05/17 03:35:19;;;;;;;0.00;0.00;;;14.50;99.90;;;;;;6243471;23;20083;-79
2021/05/17 03:37:46;;;;;;;0.10;0.10;;;14.50;99.90;;;;;;6244177;22;20762;-79
2021/05/17 03:40:13;;;;;;;0.00;0.00;;;14.50;99.90;;;;;;6243578;22;20062;-79
2021/05/17 03:42:39;;;;;;;;;;;14.50;99.90;;;;;;6244076;23;20446;-79
2021/05/17 03:45:07;;;;;;;0.10;0.10;;;14.50;99.90;;;;;;6243228;23;19903;-79
2021/05/17 03:47:33;;;;;;;0.00;0.00;;;14.40;99.90;;;;;;6243860;22;20098;-79
2021/05/17 03:49:59;;;;;;;0.00;0.00;;;14.50;99.90;;;;;;6243498;22;20439;-81
2021/05/17 03:52:24;;;;;;;0.00;0.00;;;14.50;99.90;;;;;;6243463;22;20000;-79
2021/05/17 03:54:51;;;;;;;0.10;0.10;;;14.50;99.90;;;;;;6243533;22;20126;-79
2021/05/17 03:57:17;;;;;;;0.00;0.00;;;14.50;99.90;;;;;;6243796;22;20000;-79
2021/05/17 03:59:45;;;;;;;0.10;0.10;;;14.50;99.90;;;;;;6243455;23;20000;-79
2021/05/17 04:02:17;;;;;;;0.00;0.00;;;14.50;99.90;;;;;;6243632;23;20000;-78
2021/05/17 04:04:53;;;;;;;0.08;0.08;;;14.40;99.90;;;;;;6243357;23;20011;-79
2021/05/17 04:07:29;;;;;;;0.00;0.00;;;14.50;99.90;;;;;;6243369;23;20078;-77
2021/05/17 04:15:23;;;;;;;0.00;0.00;;;14.60;99.90;;;;;;6243099;22;20007;-78
2021/05/17 04:17:48;;;;;;;0.10;0.10;;;14.60;99.90;;;;;;6243447;22;20004;-78
2021/05/17 04:20:14;;;;;;;0.00;0.00;;;14.60;99.90;;;;;;6215965;23;20000;-79
2021/05/17 04:22:41;;;;;;;0.10;0.10;;;14.80;99.90;;;;;;6243435;23;20008;-78
2021/05/17 04:25:08;;;;;;;0.00;0.00;;;14.80;99.90;;;;;;6242771;23;20015;-78
2021/05/17 04:27:34;;;;;;;0.10;0.10;;;14.80;99.90;;;;;;6242960;22;20008;-78
2021/05/17 04:30:00;;;;;;;0.10;0.10;;;14.80;99.90;;;;;;6242412;23;19996;-78
2021/05/17 04:32:25;;;;;;;0.00;0.00;;;14.70;99.90;;;;;;6242909;22;20004;-79
2021/05/17 04:34:51;;;;;;;0.10;0.10;;;14.70;99.90;;;;;;6242762;22;20386;-79
2021/05/17 04:37:17;;;;;;;0.10;0.10;;;14.80;99.90;;;;;;6243162;22;20004;-78
2021/05/17 04:39:42;;;;;;;0.00;0.00;;;14.90;99.90;;;;;;6242933;22;20329;-78
2021/05/17 04:42:08;;;;;;;0.00;0.00;;;14.80;99.90;;;;;;6242871;22;20308;-78
2021/05/17 04:44:34;;;;;;;0.10;0.10;;;14.80;99.90;;;;;;6243280;23;20080;-78
2021/05/17 04:46:59;;;;;;;0.10;0.10;;;14.80;99.90;;;;;;6243036;23;20066;-78
2021/05/17 04:49:25;;;;;;;0.00;0.00;;;14.70;99.90;;;;;;6242382;23;20011;-78
2021/05/17 04:51:51;;;;;;;0.00;0.00;;;14.70;99.90;;;;;;6243073;22;20039;-78
2021/05/17 04:54:16;;;;;;;0.00;0.00;;;14.70;99.90;;;;;;6242414;23;20497;-79
2021/05/17 04:56:42;;;;;;;0.00;0.00;;;14.60;99.90;;;;;;6242776;22;19996;-78
2021/05/17 04:59:07;;;;;;;0.10;0.10;;;14.60;99.90;;;;;;6242415;22;20000;-78
2021/05/17 05:01:33;;;;;;;0.10;0.10;;;14.70;99.90;;;;;;6242652;23;20019;-78
2021/05/17 05:03:59;;;;;;;0.10;0.10;;;14.60;99.90;;;;;;6242355;23;20396;-78
2021/05/17 05:06:24;;;;;;;0.08;0.08;;;14.60;99.90;;;;;;6242786;23;20016;-79
2021/05/17 05:08:50;;;;;;;0.00;0.00;;;14.60;99.90;;;;;;6242572;22;19996;-79
2021/05/17 05:11:16;;;;;;;0.00;0.00;;;14.50;99.90;;;;;;6242731;23;20079;-79
2021/05/17 05:13:42;;;;;;;0.10;0.10;;;14.50;99.90;;;;;;6242361;23;20007;-79
2021/05/17 05:16:09;;;;;;;0.10;0.10;;;14.50;99.90;;;;;;6242519;22;20000;-77
2021/05/17 05:18:34;;;;;;;0.00;0.00;;;14.50;99.90;;;;;;6242311;23;20004;-78
2021/05/17 05:21:00;;;;;;;0.00;0.00;;;14.50;99.90;;;;;;6243113;23;20082;-78
2021/05/17 05:23:26;;;;;;;0.10;0.10;;;14.60;99.90;;;;;;6241979;23;20075;-78
2021/05/17 05:28:20;;;;;;;0.10;0.10;;;14.60;99.90;;;;;;6243972;23;20016;-78
2021/05/17 05:31:01;;;;;;;0.10;0.10;;;14.70;99.90;;;;;;6242118;23;20073;-78
2021/05/17 05:33:27;;;;;;;0.00;0.00;;;14.80;99.90;;;;;;6242136;23;20225;-78
2021/05/17 05:35:53;;;;;;;0.10;0.10;;;14.80;99.90;;;;;;6242596;22;19996;-78
2021/05/17 05:38:19;;;;;;;0.10;0.10;;;14.90;99.90;;;;;;6242141;23;20335;-76
2021/05/17 05:40:45;;;;;;;0.10;0.10;;;14.90;99.90;;;;;;6242297;23;20462;-76
2021/05/17 05:43:11;;;;;;;0.00;0.00;;;14.90;99.90;;;;;;6242012;22;19997;-76
2021/05/17 05:45:44;;;;;;;0.00;0.00;;;15.00;99.90;;;;;;6242038;23;20027;-76
2021/05/17 05:48:10;;;;;;;0.10;0.10;;;15.20;99.90;;;;;;6241444;22;20458;-76
2021/05/17 05:50:37;;;;;;;0.00;0.00;;;15.60;99.90;;;;;;6240153;22;19996;-77
2021/05/17 05:53:03;;;;;;;0.00;0.00;;;15.90;99.90;;;;;;6239563;23;20151;-76
2021/05/17 05:55:29;;;;;;;0.00;0.00;;;15.90;99.90;;;;;;6239997;23;20003;-76
2021/05/17 05:57:56;;;;;;;0.10;0.10;;;15.80;99.90;;;;;;6239930;23;20401;-76
2021/05/17 06:00:23;;;;;;;0.10;0.10;;;16.10;99.90;;;;;;6239606;22;20007;-77
2021/05/17 06:02:49;;;;;;;0.10;0.10;;;16.30;99.90;;;;;;6240354;22;20345;-79
2021/05/17 06:05:15;;;;;;;0.00;0.00;;;16.40;99.90;;;;;;6241579;22;20008;-78
2021/05/17 06:07:40;;;;;;;0.00;0.00;;;16.40;99.90;;;;;;6242029;22;20070;-78
2021/05/17 06:10:09;;;;;;;0.10;0.10;;;16.20;99.90;;;;;;6241830;22;20381;-77
2021/05/17 06:12:37;;;;;;;0.00;0.00;;;16.00;99.90;;;;;;6242198;23;20464;-76
2021/05/17 06:15:04;;;;;;;0.00;0.00;;;15.90;99.90;;;;;;6241424;23;19996;-78
2021/05/17 06:17:30;;;;;;;0.10;0.10;;;15.80;99.90;;;;;;6242081;22;20011;-77
2021/05/17 06:19:56;;;;;;;0.00;0.00;;;15.80;99.90;;;;;;6214931;23;20004;-77
2021/05/17 06:22:25;;;;;;;0.10;0.10;;;15.80;99.90;;;;;;6242069;23;19999;-78
2021/05/17 06:24:53;;;;;;;0.03;0.03;;;15.70;99.90;;;;;;6241660;23;20499;-77
2021/05/17 06:27:19;;;;;;;0.10;0.10;;;15.70;99.90;;;;;;6242140;22;20435;-77
2021/05/17 06:29:46;;;;;;;0.00;0.00;;;15.80;99.90;;;;;;6241757;23;20451;-77
2021/05/17 06:32:14;;;;;;;0.10;0.10;;;15.90;99.90;;;;;;6242151;22;20007;-77
2021/05/17 06:34:40;;;;;;;0.10;0.10;;;16.30;99.90;;;;;;6241569;22;20039;-78
2021/05/17 06:37:06;;;;;;;0.10;0.10;;;16.80;99.90;;;;;;6242312;22;20000;-76
2021/05/17 06:39:33;;;;;;;0.10;0.10;;;16.80;99.90;;;;;;6214833;22;20324;-77
2021/05/17 06:41:59;;;;;;;0.10;0.10;;;16.30;99.90;;;;;;6242029;22;19997;-78
2021/05/17 06:44:24;;;;;;;0.00;0.00;;;15.70;99.90;;;;;;6241731;22;20459;-76
2021/05/17 06:46:50;;;;;;;0.00;0.00;;;15.40;99.90;;;;;;6242228;23;20016;-75
2021/05/17 06:49:16;;;;;;;0.10;0.10;;;15.10;99.90;;;;;;6241086;23;20030;-77
2021/05/17 06:51:42;;;;;;;0.10;0.10;;;14.50;99.90;;;;;;6241513;23;20324;-75
2021/05/17 06:54:09;;;;;;;0.00;0.00;;;13.90;99.90;;;;;;6242282;22;20000;-76
2021/05/17 06:59:05;;;;;;;0.00;0.00;;;14.10;99.90;;;;;;6244595;22;20333;-75
2021/05/17 07:01:31;;;;;;;0.00;0.00;;;14.40;99.90;;;;;;6244028;22;20505;-76
2021/05/17 07:03:57;;;;;;;0.00;0.00;;;14.70;99.90;;;;;;6242882;23;20004;-75
2021/05/17 07:06:26;;;;;;;0.10;0.10;;;14.80;99.90;;;;;;6242372;22;20015;-76
2021/05/17 07:11:45;;;;;;;0.05;0.05;;;14.70;99.90;;;;;;6243011;23;20023;-76
2021/05/17 07:14:11;;;;;;;0.10;0.10;;;15.00;99.90;;;;;;6243418;22;20079;-75
2021/05/17 07:16:37;;;;;;;0.10;0.10;;;15.30;99.90;;;;;;6243645;23;20000;-75
2021/05/17 07:19:03;;;;;;;0.10;0.10;;;15.50;99.90;;;;;;6243716;22;20000;-76
2021/05/17 07:24:13;;;;;;;0.10;0.10;;;15.50;99.90;;;;;;6240269;22;20158;-76
2021/05/17 07:26:39;;;;;;;0.10;0.10;;;15.50;99.90;;;;;;6240112;22;20039;-77
2021/05/17 07:29:07;;;;;;;0.10;0.10;;;15.40;99.90;;;;;;6240453;23;20008;-77
2021/05/17 07:31:33;;;;;;;0.00;0.00;;;15.30;99.90;;;;;;6240596;22;20010;-78
2021/05/17 07:33:59;;;;;;;0.00;0.00;;;15.20;99.90;;;;;;6239778;22;20012;-78
2021/05/17 07:36:25;;;;;;;0.10;0.10;;;15.20;99.90;;;;;;6213749;22;20012;-77
2021/05/17 07:38:52;;;;;;;0.10;0.10;;;15.30;99.90;;;;;;6213088;23;20432;-76
2021/05/17 07:41:18;;;;;;;0.00;0.00;;;15.30;99.90;;;;;;6240145;22;20008;-76
2021/05/17 07:43:44;;;;;;;0.00;0.00;;;15.30;99.90;;;;;;6240196;22;20024;-76
2021/05/17 07:46:10;;;;;;;0.00;0.00;;;15.60;99.90;;;;;;6240070;23;20008;-76
2021/05/17 07:49:03;;;;;;;0.03;0.03;;;15.90;99.90;;;;;;6239920;23;20450;-81
2021/05/17 07:51:21;;;;;;;0.10;0.10;;;16.20;99.90;;;;;;6239234;23;20023;-73
2021/05/17 07:53:47;;;;;;;0.10;0.10;;;16.30;99.90;;;;;;6238615;23;20543;-74
2021/05/17 07:56:15;;;;;;;0.05;0.05;;;16.50;99.00;;;;;;6238745;22;20007;-75
2021/05/17 07:58:40;;;;;;;0.10;0.10;;;16.60;98.40;;;;;;6238987;22;20011;-74
2021/05/17 08:01:06;;;;;;;0.10;0.10;;;16.70;99.10;;;;;;6239220;23;20008;-74
2021/05/17 08:03:32;;;;;;;0.10;0.10;;;16.70;97.70;;;;;;6239077;23;20000;-74
2021/05/17 08:05:58;;;;;;;0.10;0.10;;;16.40;96.20;;;;;;6238482;23;20035;-76
2021/05/17 08:08:24;;;;;;;0.10;0.10;;;16.10;98.40;;;;;;6240288;22;20004;-74
2021/05/17 08:10:50;;;;;;;0.10;0.10;;;15.90;98.80;;;;;;6240389;22;20000;-74
2021/05/17 08:13:15;;;;;;;0.10;0.10;;;15.60;97.80;;;;;;6239501;23;20658;-74
2021/05/17 08:15:41;;;;;;;0.10;0.10;;;15.40;99.90;;;;;;6240219;23;20008;-74
2021/05/17 08:18:07;;;;;;;0.10;0.10;;;15.30;99.90;;;;;;6239953;23;20028;-74
2021/05/17 08:20:32;;;;;;;0.10;0.10;;;15.20;99.90;;;;;;6239745;22;20010;-73
2021/05/17 08:23:00;;;;;;;0.10;0.10;;;15.10;99.90;;;;;;6239586;22;20012;-76
2021/05/17 08:25:25;;;;;;;0.10;0.10;;;15.00;99.90;;;;;;6240348;23;20036;-76
2021/05/17 08:27:51;;;;;;;0.10;0.10;;;14.90;98.70;;;;;;6240114;22;20427;-75
2021/05/17 08:30:17;;;;;;;0.10;0.10;;;14.40;99.30;;;;;;6239137;23;20118;-72
2021/05/17 08:32:43;;;;;;;0.10;0.10;;;14.10;99.90;;;;;;6240178;22;20447;-73
2021/05/17 08:35:09;;;;;;;0.10;0.10;;;13.80;99.90;;;;;;6239855;23;20000;-73
2021/05/17 08:37:35;;;;;;;0.10;0.10;;;13.80;99.90;;;;;;6240134;23;20019;-72
2021/05/17 08:40:00;;;;;;;0.10;0.10;;;13.80;99.90;;;;;;6239214;22;20477;-73
2021/05/17 08:42:27;;;;;;;0.10;0.10;;;14.00;99.90;;;;;;6239391;23;20390;-75
2021/05/17 08:44:53;;;;;;;0.10;0.10;;;14.10;99.90;;;;;;6239587;23;20071;-75
2021/05/17 08:47:19;;;;;;;0.00;0.00;;;14.20;99.90;;;;;;6213160;22;20050;-74
2021/05/17 08:49:45;;;;;;;0.10;0.10;;;14.10;99.90;;;;;;6239631;23;20004;-75
2021/05/17 08:52:11;;;;;;;0.10;0.10;;;14.10;99.90;;;;;;6239829;22;20431;-75
2021/05/17 08:54:37;;;;;;;0.10;0.10;;;14.10;99.90;;;;;;6239513;22;20007;-72
2021/05/17 08:57:03;;;;;;;0.10;0.10;;;14.10;99.90;;;;;;6240173;22;20398;-72
2021/05/17 08:59:30;;;;;;;0.10;0.10;;;14.20;99.90;;;;;;6239471;23;20027;-73
2021/05/17 09:01:56;;;;;;;0.10;0.10;;;14.20;99.90;;;;;;6239595;23;20435;-74
2021/05/17 09:04:22;;;;;;;0.10;0.10;;;14.10;99.90;;;;;;6239432;23;20011;-74
2021/05/17 09:06:57;;;;;;;0.10;0.10;;;14.00;99.90;;;;;;6239252;22;20004;-73
2021/05/17 09:09:35;;;;;;;0.10;0.10;;;13.90;99.90;;;;;;6239161;22;20013;-73
2021/05/17 09:12:09;;;;;;;0.10;0.10;;;13.90;99.90;;;;;;6212714;22;20035;-73
2021/05/17 09:14:35;;;;;;;0.10;0.10;;;14.10;99.90;;;;;;6212882;23;20003;-73
2021/05/17 09:17:02;;;;;;;0.10;0.10;;;14.50;99.90;;;;;;6212462;23;20000;-73
2021/05/17 09:19:29;;;;;;;0.10;0.10;;;14.90;99.90;;;;;;6239150;23;20000;-73
2021/05/17 09:21:55;;;;;;;0.10;0.10;;;15.30;99.90;;;;;;6239926;22;20339;-74
2021/05/17 09:24:37;;;;;;;0.10;0.10;;;15.80;99.90;;;;;;6239106;23;20016;-73
2021/05/17 09:27:03;;;;;;;0.10;0.10;;;16.20;99.90;;;;;;6239667;23;20012;-73
2021/05/17 09:29:28;;;;;;;0.10;0.10;;;16.50;99.90;;;;;;6212302;23;20004;-74
2021/05/17 09:31:55;;;;;;;0.10;0.10;;;17.00;99.90;;;;;;6239131;23;20008;-74
2021/05/17 09:34:41;;;;;;;0.10;0.10;;;17.50;98.10;;;;;;6238241;23;20007;-74
2021/05/17 09:37:08;;;;;;;0.10;0.10;;;17.70;96.20;;;;;;6239057;22;20004;-74
2021/05/17 09:39:37;;;;;;;0.10;0.10;;;17.90;94.30;;;;;;6239236;23;20008;-72
2021/05/17 09:42:05;;;;;;;0.10;0.10;;;18.10;92.50;;;;;;6239209;23;20000;-75
2021/05/17 09:44:31;;;;;;;0.10;0.10;;;18.10;93.10;;;;;;6239053;22;20008;-72
2021/05/17 09:47:09;;;;;;;0.10;0.10;;;18.50;91.60;;;;;;6238780;23;20004;-73
2021/05/17 09:49:50;;;;;;;0.10;0.10;;;18.60;91.80;;;;;;6239167;23;20090;-73
2021/05/17 09:52:27;;;;;;;0.10;0.10;;;18.90;91.90;;;;;;6239261;23;20012;-74
2021/05/17 09:55:09;;;;;;;0.10;0.10;;;19.20;90.30;;;;;;6238866;22;20007;-74
2021/05/17 09:57:40;;;;;;;0.10;0.10;;;19.50;90.20;;;;;;6239557;23;20473;-73
2021/05/17 10:00:15;;;;;;;0.10;0.10;;;19.50;86.80;;;;;;6238173;23;20004;-74
2021/05/17 10:02:54;;;;;;;0.10;0.10;;;19.40;84.70;;;;;;6237050;22;20086;-73
2021/05/17 10:05:26;;;;;;;0.10;0.10;;;19.10;86.20;;;;;;6210505;22;20004;-73
2021/05/17 10:07:55;;;;;;;0.10;0.10;;;19.10;85.60;;;;;;6239168;23;20266;-73
2021/05/17 10:10:23;;;;;;;0.10;0.10;;;19.00;84.10;;;;;;6239265;22;20055;-73
2021/05/17 10:12:53;;;;;;;0.10;0.10;;;18.70;86.20;;;;;;6239167;22;20004;-73
2021/05/17 10:15:21;;;;;;;0.10;0.10;;;18.60;87.30;;;;;;6238919;23;20004;-73
2021/05/17 10:17:47;;;;;;;0.10;0.10;;;18.50;85.70;;;;;;6239531;22;20096;-72
2021/05/17 10:20:17;;;;;;;0.10;0.10;;;18.60;85.30;;;;;;6238802;23;19997;-73
2021/05/17 10:22:45;;;;;;;0.10;0.10;;;18.90;82.30;;;;;;6239506;23;20030;-73
2021/05/17 10:25:13;;;;;;;0.10;0.10;;;19.10;81.50;;;;;;6239088;22;20012;-74
2021/05/17 10:27:47;;;;;;;0.10;0.10;;;19.30;79.50;;;;;;6240646;23;20008;-74
2021/05/17 10:30:15;;;;;;;0.10;0.10;;;19.50;79.40;;;;;;6214474;23;20000;-73
2021/05/17 10:33:03;;;;;;;0.10;0.10;;;19.80;78.10;;;;;;6242483;22;20057;-73
2021/05/17 10:35:35;;;;;;;0.10;0.10;;;20.10;76.60;;;;;;6241854;22;20008;-73
2021/05/17 10:38:44;;;;;;;0.10;0.10;;;20.30;74.50;;;;;;6242214;22;20036;-73
2021/05/17 10:46:51;;;;;;;0.10;0.10;;;20.90;70.30;;;;;;6244936;22;20094;-72
2021/05/17 10:49:39;;;;;;;0.10;0.10;;;21.00;69.20;;;;;;6243671;23;20004;-72
2021/05/17 10:52:10;;;;;;;0.10;0.10;;;20.80;68.90;;;;;;6243949;23;20030;-73
2021/05/17 10:54:44;;;;;;;0.10;0.10;;;20.80;67.90;;;;;;6243620;22;20007;-72
2021/05/17 10:57:18;;;;;;;0.10;0.10;;;20.60;70.20;;;;;;6243986;22;19996;-73
2021/05/17 11:02:34;;;;;;;0.10;0.10;;;21.00;69.70;;;;;;6244257;22;20493;-73
2021/05/17 11:05:19;;;;;;;0.10;0.10;;;21.00;68.80;;;;;;6243569;22;20000;-73
2021/05/17 11:07:56;;;;;;;0.10;0.10;;;21.20;67.60;;;;;;6244077;23;20073;-72
2021/05/17 11:10:25;;;;;;;0.10;0.10;;;21.20;66.80;;;;;;6244020;23;20054;-73
2021/05/17 11:13:11;;;;;;;0.10;0.10;;;21.20;68.60;;;;;;6243812;22;20011;-73
2021/05/17 11:16:08;;;;;;;0.10;0.10;;;21.20;67.30;;;;;;6243844;23;20003;-74
2021/05/17 11:18:43;;;;;;;0.10;0.10;;;21.20;67.40;;;;;;6243690;22;20369;-74
2021/05/17 11:21:13;;;;;;;0.10;0.10;;;21.00;66.70;;;;;;6243907;22;20007;-74
2021/05/17 11:23:39;;;;;;;0.10;0.10;;;21.10;65.80;;;;;;6243428;22;20086;-73
2021/05/17 11:26:27;;;;;;;0.10;0.10;;;21.40;67.10;;;;;;6217039;23;20524;-74
2021/05/17 11:28:52;;;;;;;0.10;0.10;;;21.90;64.70;;;;;;6243817;23;20079;-74
2021/05/17 11:31:24;;;;;;;0.10;0.10;;;22.60;64.60;;;;;;6216120;23;20024;-76
2021/05/17 11:33:52;;;;;;;0.10;0.10;;;23.10;62.50;;;;;;6240080;23;20003;-74
2021/05/17 11:36:19;;;;;;;0.10;0.10;;;23.70;58.90;;;;;;6240915;23;20004;-74
2021/05/17 11:39:18;;;;;;;0.10;0.10;;;24.00;58.10;;;;;;6240351;23;20098;-74
2021/05/17 11:41:53;;;;;;;0.10;0.10;;;24.00;58.60;;;;;;6239994;23;20008;-74
2021/05/17 11:44:56;;;;;;;0.10;0.10;;;24.00;57.60;;;;;;6241800;23;20000;-73
2021/05/17 11:47:30;;;;;;;0.10;0.10;;;24.20;56.90;;;;;;6243773;22;20288;-72
2021/05/17 11:49:57;;;;;;;0.10;0.10;;;24.00;56.60;;;;;;6243071;23;20075;-73
2021/05/17 11:52:28;;;;;;;;;;;23.70;56.30;;;;;;6244540;23;20007;-73
2021/05/17 11:54:55;;;;;;;0.10;0.10;;;23.70;58.10;;;;;;6243439;22;19903;-73
2021/05/17 11:57:28;;;;;;;0.10;0.10;;;23.70;56.90;;;;;;6243863;23;19996;-73
2021/05/17 11:59:54;;;;;;;0.10;0.10;;;24.20;55.50;;;;;;6216187;23;20004;-73
2021/05/17 12:02:20;;;;;;;0.10;0.10;;;24.50;57.10;;;;;;6243520;22;20000;-73
2021/05/17 12:04:46;;;;;;;0.10;0.10;;;24.50;55.10;;;;;;6243241;23;20010;-73
2021/05/17 12:07:16;;;;;;;0.10;0.10;;;24.30;55.40;;;;;;6243025;22;20463;-73
2021/05/17 12:09:42;;;;;;;0.10;0.10;;;24.00;54.60;;;;;;6239513;22;20008;-73
2021/05/17 12:12:10;;;;;;;;;;;24.40;54.60;;;;;;6240132;22;20060;-73
2021/05/17 12:14:38;;;;;;;0.10;0.10;;;26.20;53.40;;;;;;6238533;23;19982;-73
2021/05/17 12:17:15;;;;;;;0.10;0.10;;;27.20;49.20;;;;;;6238574;23;20015;-74
2021/05/17 12:19:42;;;;;;;0.10;0.10;;;28.30;47.90;;;;;;6238506;22;20009;-74
2021/05/17 12:22:15;;;;;;;0.15;0.15;;;29.40;45.30;;;;;;6211839;23;20095;-72
2021/05/17 12:24:41;;;;;;;0.38;0.38;;;31.50;43.10;;;;;;6237914;23;20149;-73
2021/05/17 12:27:08;;;;;;;;;;;35.80;36.80;;;;;;6239462;22;20043;-72
2021/05/17 12:29:49;;;;;;;0.43;0.43;;;38.00;30.90;;;;;;6238630;22;19904;-75
2021/05/17 12:32:15;;;;;;;0.30;0.30;;;38.50;28.50;;;;;;6238428;23;20195;-73
2021/05/17 12:38:12;;;;;;;0.32;0.32;;;37.50;30.30;;;;;;6237708;23;20027;-73
2021/05/17 12:40:40;;;;;;;0.28;0.28;;;38.40;30.30;;;;;;6238634;22;20008;-72
2021/05/17 12:43:09;;;;;;;0.10;0.10;;;39.20;29.00;;;;;;6238121;22;19996;-73
2021/05/17 12:45:42;;;;;;;0.20;0.20;;;41.00;27.30;;;;;;6238434;22;20035;-74
2021/05/17 12:48:32;;;;;;;0.38;0.38;;;42.20;26.80;;;;;;6238397;23;20008;-73
2021/05/17 12:51:18;;;;;;;0.40;0.40;;;43.60;23.40;;;;;;6238289;23;20004;-74
2021/05/17 12:53:45;;;;;;;0.40;0.40;;;43.80;22.90;;;;;;6237923;23;19996;-74
2021/05/17 12:56:24;;;;;;;0.30;0.30;;;44.00;25.00;;;;;;6238931;22;20339;-74
2021/05/17 12:58:49;;;;;;;0.30;0.30;;;43.40;24.00;;;;;;6237935;23;20053;-73
2021/05/17 13:01:19;;;;;;;0.20;0.20;;;43.80;25.00;;;;;;6237661;22;20083;-74
2021/05/17 13:03:56;;;;;;;0.20;0.20;;;44.40;21.70;;;;;;6238316;23;20004;-74
2021/05/17 13:06:29;;;;;;;0.20;0.20;;;44.50;21.20;;;;;;6238575;22;20022;-76
2021/05/17 13:09:07;;;;;;;0.20;0.20;;;44.20;23.90;;;;;;6238040;23;20012;-75
2021/05/17 13:11:34;;;;;;;0.20;0.20;;;44.50;20.50;;;;;;6238525;23;20432;-76
2021/05/17 13:14:09;;;;;;;0.30;0.30;;;44.30;20.30;;;;;;6238467;22;20466;-74
2021/05/17 13:16:40;;;;;;;0.10;0.10;;;43.70;22.70;;;;;;6211299;23;20379;-76
2021/05/17 13:21:49;;;;;;;0.10;0.10;;;44.10;24.40;;;;;;6238339;23;20066;-74
2021/05/17 13:32:11;;;;;;;0.10;0.10;;;43.80;21.40;;;;;;6238139;23;20015;-74
2021/05/17 13:34:37;;;;;;;0.30;0.30;;;40.90;22.40;;;;;;6237922;23;20004;-77